Time;durP1;ratioP1;P1;durP2;ratioP2;P2;SDS_P1;SDS_P2;PMS_P1;PMS_P2;Temp;Humidity;BMP_temperature;BMP_pressure;BME280_temperature;BME280_humidity;BME280_pressure;Samples;Min_cycle;Max_cycle;Signal;HPM_P1;HPM_P2
2022/04/22 00:00:08;;;;;;;8.80;4.68;;;;;;;9.16;52.68;98030.72;5111596;28;20085;-64
2022/04/22 00:03:07;;;;;;;8.00;4.45;;;;;;;9.28;52.42;98026.38;5111843;28;20426;-65
2022/04/22 00:05:52;;;;;;;6.85;4.18;;;;;;;9.54;51.50;98023.56;5112404;28;20039;-65
2022/04/22 00:08:36;;;;;;;7.70;4.85;;;;;;;9.21;52.30;98033.84;5112219;28;20402;-65
2022/04/22 00:11:30;;;;;;;7.28;4.72;;;;;;;9.04;52.78;98033.28;5110486;28;20074;-65
2022/04/22 00:14:15;;;;;;;10.00;5.20;;;;;;;9.29;52.14;98026.25;5111535;28;20071;-64
2022/04/22 00:17:00;;;;;;;7.43;4.53;;;;;;;9.63;51.14;98016.81;5110387;28;20043;-65
2022/04/22 00:19:45;;;;;;;7.03;4.90;;;;;;;9.37;51.49;98015.22;5112534;28;20046;-65
2022/04/22 00:22:30;;;;;;;9.85;5.18;;;;;;;9.22;51.91;98010.19;5113898;28;20443;-64
2022/04/22 00:25:15;;;;;;;6.88;5.15;;;;;;;9.24;51.80;98010.91;5115501;28;20044;-64
2022/04/22 00:28:00;;;;;;;6.05;4.40;;;;;;;9.31;51.44;98000.84;5114200;28;20031;-64
2022/04/22 00:30:45;;;;;;;7.80;5.13;;;;;;;9.22;51.61;98004.16;5114212;28;20066;-64
2022/04/22 00:33:30;;;;;;;9.27;4.75;;;;;;;9.19;51.84;98002.59;5115456;28;20035;-64
2022/04/22 00:36:15;;;;;;;5.65;4.03;;;;;;;9.55;50.86;97992.06;5115791;28;20402;-64
2022/04/22 00:39:01;;;;;;;10.40;4.70;;;;;;;9.24;51.56;97994.41;5115363;28;20035;-65
2022/04/22 00:41:46;;;;;;;9.55;5.05;;;;;;;9.14;52.07;97983.00;5113990;28;20063;-65
2022/04/22 00:44:31;;;;;;;6.55;4.35;;;;;;;9.15;51.80;97980.25;5113940;28;20035;-64
2022/04/22 00:47:16;;;;;;;6.35;4.25;;;;;;;9.18;51.46;97980.03;5115168;28;20043;-64
2022/04/22 00:50:01;;;;;;;6.53;3.85;;;;;;;9.27;51.86;97972.44;5115506;28;20049;-65
2022/04/22 00:52:46;;;;;;;6.30;4.18;;;;;;;9.09;52.08;97970.28;5115373;28;20040;-65
2022/04/22 00:55:30;;;;;;;8.05;4.88;;;;;;;9.03;52.00;97968.94;5113522;28;20043;-64
2022/04/22 00:58:15;;;;;;;9.35;4.97;;;;;;;8.99;52.16;97960.50;5113863;28;20067;-65
2022/04/22 01:01:00;;;;;;;8.35;4.88;;;;;;;8.85;52.80;97960.69;5113832;28;20169;-64
2022/04/22 01:09:51;;;;;;;8.10;5.07;;;;;;;8.90;52.68;97955.97;5114619;28;20347;-63
2022/04/22 01:12:37;;;;;;;8.48;4.78;;;;;;;8.84;53.07;97951.19;5114347;28;20047;-63
2022/04/22 01:15:22;;;;;;;8.48;5.13;;;;;;;8.94;52.78;97956.56;5099046;28;20076;-66
2022/04/22 01:18:07;;;;;;;8.65;5.55;;;;;;;8.87;52.74;97950.97;5114612;28;20114;-63
2022/04/22 01:20:52;;;;;;;8.85;5.30;;;;;;;8.82;52.81;97953.09;5114401;28;20035;-64
2022/04/22 01:23:37;;;;;;;9.75;5.38;;;;;;;8.95;52.52;97946.00;5099455;28;20036;-65
2022/04/22 01:26:22;;;;;;;9.93;5.47;;;;;;;8.95;52.40;97943.38;5105393;28;20475;-64
2022/04/22 01:29:07;;;;;;;10.50;5.20;;;;;;;8.66;53.29;97948.16;5113733;28;20539;-64
2022/04/22 01:31:51;;;;;;;9.48;5.60;;;;;;;8.59;53.50;97932.97;5113775;28;20035;-64
2022/04/22 01:34:37;;;;;;;8.23;4.72;;;;;;;8.74;53.29;97931.00;5113869;28;20040;-64
2022/04/22 01:37:23;;;;;;;11.35;5.63;;;;;;;8.61;53.73;97925.00;5094123;28;20090;-65
2022/04/22 01:40:08;;;;;;;9.80;5.63;;;;;;;8.43;54.54;97922.78;5093588;28;20046;-66
2022/04/22 01:42:53;;;;;;;9.80;5.63;;;;;;;8.57;54.09;97928.81;5092080;28;20036;-63
2022/04/22 01:45:38;;;;;;;9.30;5.30;;;;;;;8.80;53.23;97921.00;5092171;28;20051;-65
2022/04/22 01:48:22;;;;;;;9.27;5.72;;;;;;;8.55;53.96;97923.66;5093555;28;20052;-64
2022/04/22 01:51:07;;;;;;;10.98;5.72;;;;;;;8.50;54.19;97916.16;5092927;28;20058;-65
2022/04/22 01:53:52;;;;;;;10.65;5.53;;;;;;;8.48;54.18;97907.63;5091925;28;20050;-64
2022/04/22 01:56:37;;;;;;;10.27;5.78;;;;;;;8.47;54.50;97908.53;5092144;28;20055;-64
2022/04/22 01:59:21;;;;;;;9.02;5.35;;;;;;;8.46;54.71;97909.50;5092101;28;20460;-64
2022/04/22 02:02:06;;;;;;;9.65;5.57;;;;;;;8.47;54.56;97903.31;5108854;28;20044;-65
2022/04/22 02:04:52;;;;;;;9.55;5.68;;;;;;;8.23;55.48;97895.50;5099028;28;20036;-64
2022/04/22 02:07:38;;;;;;;9.13;5.97;;;;;;;8.22;55.50;97892.09;5114058;28;20420;-66
2022/04/22 02:10:23;;;;;;;10.10;5.53;;;;;;;8.31;55.37;97884.50;5112037;28;20044;-63
2022/04/22 02:13:08;;;;;;;9.73;5.82;;;;;;;8.11;55.58;97876.38;5112119;28;20039;-64
2022/04/22 02:15:53;;;;;;;13.43;6.40;;;;;;;8.04;55.76;97881.22;5097629;28;20051;-63
2022/04/22 02:18:38;;;;;;;10.60;6.07;;;;;;;7.96;56.29;97879.16;5096295;28;20039;-64
2022/04/22 02:21:23;;;;;;;9.38;6.18;;;;;;;7.84;56.45;97886.06;5093668;28;20036;-65
2022/04/22 02:24:08;;;;;;;11.82;5.82;;;;;;;7.95;56.05;97892.31;5077491;28;20058;-65
2022/04/22 02:29:56;;;;;;;11.40;6.50;;;;;;;7.91;55.92;97877.81;5092321;28;20494;-65
2022/04/22 02:32:41;;;;;;;11.70;6.03;;;;;;;7.74;55.94;97874.63;5091599;28;20036;-63
2022/04/22 02:35:25;;;;;;;17.27;7.25;;;;;;;7.81;55.60;97883.69;5100873;28;20036;-63
2022/04/22 02:38:10;;;;;;;12.07;6.55;;;;;;;7.72;55.23;97869.53;5113862;28;20511;-64
2022/04/22 02:47:03;;;;;;;13.02;6.20;;;;;;;8.55;52.03;97873.25;5092144;28;20035;-64
2022/04/22 02:49:48;;;;;;;15.68;6.38;;;;;;;8.35;52.52;97881.59;5092545;28;20118;-65
2022/04/22 02:52:33;;;;;;;10.38;6.28;;;;;;;8.26;52.82;97874.41;5092567;28;20047;-64
2022/04/22 02:55:19;;;;;;;14.98;7.07;;;;;;;8.20;52.72;97870.50;5091360;28;20036;-63
2022/04/22 02:58:05;;;;;;;12.70;5.95;;;;;;;8.14;52.80;97869.16;5093243;28;20040;-64
2022/04/22 03:00:50;;;;;;;10.68;6.03;;;;;;;8.04;53.00;97875.16;5095383;28;20032;-63
2022/04/22 03:03:36;;;;;;;12.15;6.45;;;;;;;8.07;52.89;97874.94;5098775;28;20050;-62
2022/04/22 03:06:23;;;;;;;10.70;6.15;;;;;;;8.08;53.16;97868.78;5103206;28;20139;-64
2022/04/22 03:09:07;;;;;;;11.65;5.80;;;;;;;8.14;52.62;97857.91;5100878;28;20036;-64
2022/04/22 03:11:52;;;;;;;12.45;6.38;;;;;;;8.06;52.65;97858.44;5110531;28;20050;-63
2022/04/22 03:14:38;;;;;;;12.07;5.68;;;;;;;8.05;52.66;97846.34;5111879;28;20058;-64
2022/04/22 03:17:23;;;;;;;12.38;6.10;;;;;;;7.95;52.91;97859.22;5112039;28;20031;-65
2022/04/22 03:20:08;;;;;;;12.98;7.05;;;;;;;8.06;52.81;97857.63;5111645;28;20035;-65
2022/04/22 03:22:53;;;;;;;9.13;5.88;;;;;;;8.09;52.71;97862.63;5111933;28;20052;-65
2022/04/22 03:25:40;;;;;;;9.82;5.25;;;;;;;8.18;52.60;97861.09;5112057;28;20055;-64
2022/04/22 03:28:24;;;;;;;11.25;6.25;;;;;;;8.08;53.11;97868.78;5097146;28;20043;-65
2022/04/22 03:31:09;;;;;;;13.38;7.03;;;;;;;7.94;53.00;97849.75;5083386;28;20062;-65
2022/04/22 03:33:54;;;;;;;10.35;6.03;;;;;;;7.87;53.29;97845.91;5113858;28;20415;-64
2022/04/22 03:36:39;;;;;;;10.68;6.10;;;;;;;7.77;53.76;97848.31;5112917;28;20065;-64
2022/04/22 03:39:23;;;;;;;9.60;5.85;;;;;;;7.93;53.53;97847.25;5112286;28;20038;-64
2022/04/22 03:42:08;;;;;;;9.57;5.85;;;;;;;7.86;53.85;97839.03;5112227;28;20031;-64
2022/04/22 03:44:53;;;;;;;14.15;6.22;;;;;;;7.83;53.78;97831.44;5112284;28;20164;-63
2022/04/22 03:47:38;;;;;;;9.93;6.65;;;;;;;7.85;53.45;97835.56;5110764;28;20043;-65
2022/04/22 03:50:23;;;;;;;12.00;6.05;;;;;;;7.82;53.24;97827.13;5111678;28;20383;-64
2022/04/22 03:53:14;;;;;;;10.05;6.25;;;;;;;7.82;53.56;97832.34;5111671;28;20474;-65
2022/04/22 03:58:10;;;;;;;11.65;6.20;;;;;;;7.73;53.15;97828.66;5112142;28;20043;-65
2022/04/22 03:59:03;;;;;;;13.73;6.75;;;;;;;7.72;53.57;97832.22;5115255;28;20044;-64
2022/04/22 04:01:48;;;;;;;11.35;6.57;;;;;;;7.64;54.43;97833.56;5115647;28;20497;-63
2022/04/22 04:04:32;;;;;;;12.75;6.43;;;;;;;7.54;55.04;97834.34;5115396;28;20040;-65
2022/04/22 04:07:18;;;;;;;11.40;6.63;;;;;;;7.67;54.70;97844.72;5116344;28;20424;-64
2022/04/22 04:16:09;;;;;;;15.73;7.25;;;;;;;7.46;55.22;97827.88;5115075;28;20046;-65
2022/04/22 04:23:14;;;;;;;12.25;6.18;;;;;;;7.46;55.42;97833.09;5112744;28;20036;-64
2022/04/22 04:25:03;;;;;;;10.73;6.30;;;;;;;7.56;55.12;97828.06;5103622;27;20500;-63
2022/04/22 04:27:47;;;;;;;11.55;6.90;;;;;;;7.58;55.02;97835.78;5109388;28;20114;-65
2022/04/22 04:30:32;;;;;;;13.40;7.00;;;;;;;7.57;54.96;97828.91;5097473;28;20044;-62
2022/04/22 04:33:17;;;;;;;10.05;5.80;;;;;;;7.75;54.60;97835.41;5103355;28;20034;-63
2022/04/22 04:36:02;;;;;;;19.88;7.68;;;;;;;7.64;54.71;97838.78;5105500;28;20035;-64
2022/04/22 04:38:47;;;;;;;10.32;6.18;;;;;;;7.75;54.57;97840.63;5103889;28;20451;-64
2022/04/22 04:41:32;;;;;;;15.18;6.90;;;;;;;7.84;54.55;97846.97;5084367;28;20039;-65
2022/04/22 04:44:17;;;;;;;11.18;6.47;;;;;;;7.73;54.62;97834.72;5102537;28;20101;-64
2022/04/22 04:47:02;;;;;;;13.15;6.65;;;;;;;7.61;54.84;97831.19;5103613;28;20089;-65
2022/04/22 04:49:46;;;;;;;9.80;4.85;;;;;;;8.48;65.69;97829.31;5099645;28;20126;-67
2022/04/22 04:52:31;;;;;;;14.52;6.82;;;;;;;8.20;54.38;97849.63;5102296;28;20035;-67
2022/04/22 04:55:16;;;;;;;10.82;4.15;;;;;;;10.25;67.13;97822.72;5114631;28;20456;-59
2022/04/22 04:58:02;;;;;;;8.07;4.78;;;;;;;12.49;46.00;97838.63;5115500;28;20039;-66
2022/04/22 05:00:48;;;;;;;10.23;5.78;;;;;;;10.40;58.69;97826.69;5114155;28;20087;-51
2022/04/22 05:03:32;;;;;;;9.07;5.35;;;;;;;10.22;55.01;97823.78;5114190;28;20047;-67
2022/04/22 05:06:17;;;;;;;11.95;6.22;;;;;;;8.95;51.96;97822.38;5115156;28;20354;-66
2022/04/22 05:09:02;;;;;;;12.68;6.15;;;;;;;8.62;52.47;97824.84;5114883;28;20386;-67
2022/04/22 05:11:47;;;;;;;15.57;6.75;;;;;;;8.31;53.84;97827.94;5096777;28;20467;-66
2022/04/22 05:14:31;;;;;;;9.20;5.78;;;;;;;8.16;54.56;97831.69;5106260;28;20439;-66
2022/04/22 05:17:16;;;;;;;12.07;6.10;;;;;;;8.13;54.67;97833.56;5115245;28;20042;-68
2022/04/22 05:20:02;;;;;;;13.30;6.78;;;;;;;8.29;54.34;97821.19;5104177;28;20534;-66
2022/04/22 05:22:47;;;;;;;13.00;7.10;;;;;;;8.01;55.22;97824.84;5089600;28;20031;-65
2022/04/22 05:25:32;;;;;;;12.05;6.70;;;;;;;7.85;55.99;97814.72;5106305;28;20071;-65
2022/04/22 05:28:17;;;;;;;11.68;6.45;;;;;;;7.96;55.70;97813.97;5100627;28;20382;-66
2022/04/22 05:34:05;;;;;;;11.20;6.18;;;;;;;7.91;55.95;97836.91;5097453;28;20043;-69
2022/04/22 05:36:50;;;;;;;14.70;8.00;;;;;;;7.84;55.89;97849.56;5099919;28;20031;-67
2022/04/22 05:39:34;;;;;;;11.65;6.55;;;;;;;7.90;55.91;97843.06;5100834;28;20077;-67
2022/04/22 05:42:19;;;;;;;14.85;6.95;;;;;;;7.95;55.65;97833.13;5099742;28;20032;-66
2022/04/22 05:45:09;;;;;;;12.27;7.10;;;;;;;7.86;55.92;97825.97;5098528;28;20044;-65
2022/04/22 05:47:56;;;;;;;13.20;6.97;;;;;;;7.96;56.17;97836.59;5116082;28;20043;-65
2022/04/22 05:50:41;;;;;;;12.27;6.20;;;;;;;7.97;55.88;97835.63;5114575;28;20052;-64
2022/04/22 05:53:26;;;;;;;13.50;8.10;;;;;;;7.93;55.94;97832.41;5114199;28;20118;-66
2022/04/22 05:56:11;;;;;;;13.43;7.38;;;;;;;7.95;56.05;97825.31;5113649;28;20035;-58
2022/04/22 05:58:57;;;;;;;15.73;6.88;;;;;;;8.18;55.58;97832.38;5098348;28;20036;-66
2022/04/22 06:01:41;;;;;;;13.77;7.32;;;;;;;8.09;55.23;97828.69;5100316;28;20031;-66
2022/04/22 06:04:26;;;;;;;14.05;7.00;;;;;;;8.09;55.58;97831.31;5087836;28;20043;-66
2022/04/22 06:07:11;;;;;;;9.93;6.38;;;;;;;8.15;55.14;97815.19;5106269;28;20324;-65
2022/04/22 06:13:00;;;;;;;14.40;6.90;;;;;;;8.03;55.43;97834.38;5099913;28;20120;-65
2022/04/22 06:15:45;;;;;;;11.55;6.25;;;;;;;7.98;55.05;97843.34;5107738;28;20324;-68
2022/04/22 06:18:29;;;;;;;12.35;6.82;;;;;;;8.19;54.87;97836.69;5112280;28;20039;-72
2022/04/22 06:21:14;;;;;;;11.30;6.75;;;;;;;8.13;54.89;97833.56;5111978;28;20058;-65
2022/04/22 06:23:59;;;;;;;12.35;6.75;;;;;;;8.17;55.40;97831.56;5112485;28;20036;-66
2022/04/22 06:26:43;;;;;;;11.23;6.32;;;;;;;8.22;54.93;97837.28;5113649;28;20035;-67
2022/04/22 06:29:28;;;;;;;12.73;6.45;;;;;;;8.16;55.23;97831.69;5112493;28;20194;-67
2022/04/22 06:32:14;;;;;;;11.45;6.72;;;;;;;8.12;55.33;97831.91;5112424;28;20092;-66
2022/04/22 06:34:59;;;;;;;11.65;6.60;;;;;;;8.10;55.54;97832.97;5112251;28;20115;-67
2022/04/22 06:37:46;;;;;;;12.10;6.20;;;;;;;8.08;55.84;97847.91;5113329;28;20040;-67
2022/04/22 06:46:38;;;;;;;11.00;6.85;;;;;;;8.28;55.62;97845.59;5111436;28;20356;-65
2022/04/22 06:49:23;;;;;;;10.40;6.07;;;;;;;8.07;56.04;97843.63;5112935;28;20087;-65
2022/04/22 06:52:09;;;;;;;10.50;6.68;;;;;;;8.04;56.71;97839.47;5112721;28;20111;-65
2022/04/22 06:54:54;;;;;;;14.02;6.97;;;;;;;7.96;57.16;97827.00;5112435;28;20039;-65
2022/04/22 06:57:40;;;;;;;11.63;6.90;;;;;;;8.18;56.63;97838.44;5111525;28;20499;-65
2022/04/22 07:00:25;;;;;;;13.35;6.72;;;;;;;8.17;56.56;97841.16;5112328;28;20391;-65
2022/04/22 07:03:11;;;;;;;16.08;8.07;;;;;;;8.28;57.48;97850.81;5113155;28;20047;-66
2022/04/22 07:05:56;;;;;;;11.43;7.05;;;;;;;8.23;57.48;97851.16;5113338;28;20047;-65
2022/04/22 07:08:42;;;;;;;10.43;6.30;;;;;;;8.15;57.87;97843.91;5112177;28;20466;-65
2022/04/22 07:11:28;;;;;;;10.27;6.45;;;;;;;8.21;57.86;97858.28;5113284;28;20050;-65
2022/04/22 07:14:14;;;;;;;12.15;7.10;;;;;;;7.99;58.59;97865.91;5112767;28;20126;-66
2022/04/22 07:17:01;;;;;;;11.52;6.57;;;;;;;8.18;58.03;97859.31;5111838;28;20459;-66
2022/04/22 07:19:45;;;;;;;11.88;6.32;;;;;;;8.23;58.33;97870.25;5109846;28;20588;-62
2022/04/22 07:22:30;;;;;;;9.35;6.38;;;;;;;8.49;57.66;97864.91;5097442;28;20047;-66
2022/04/22 07:25:16;;;;;;;12.30;6.65;;;;;;;8.39;57.84;97856.06;5109581;28;20141;-66
2022/04/22 07:28:04;;;;;;;11.30;5.63;;;;;;;8.42;58.00;97858.44;5101618;28;20473;-66
2022/04/22 07:30:50;;;;;;;13.63;5.63;;;;;;;8.38;58.77;97851.81;5099108;28;20035;-66
2022/04/22 07:33:35;;;;;;;15.68;6.10;;;;;;;8.34;60.07;97845.97;5110145;28;20040;-66
2022/04/22 07:36:20;;;;;;;10.98;6.28;;;;;;;8.37;60.37;97842.31;5113183;28;20104;-67
2022/04/22 07:39:05;;;;;;;14.60;7.18;;;;;;;8.26;61.68;97850.94;5117357;28;20043;-68
2022/04/22 07:41:53;;;;;;;9.55;6.10;;;;;;;8.26;62.11;97849.16;5116413;28;20107;-67
2022/04/22 07:47:49;;;;;;;10.98;6.05;;;;;;;8.39;62.98;97858.69;5072835;27;20040;-67
2022/04/22 07:50:34;;;;;;;10.60;6.88;;;;;;;8.33;63.90;97867.81;5116331;28;20427;-67
2022/04/22 07:53:20;;;;;;;9.90;5.63;;;;;;;8.38;64.90;97855.25;5122624;27;20338;-65
2022/04/22 07:56:06;;;;;;;10.85;6.88;;;;;;;8.43;65.96;97854.91;5116478;28;20095;-64
2022/04/22 07:58:51;;;;;;;13.02;7.00;;;;;;;8.46;66.53;97846.84;5115274;28;20047;-65
2022/04/22 08:01:36;;;;;;;14.68;7.53;;;;;;;8.41;67.44;97850.72;5104701;28;20140;-67
2022/04/22 08:04:20;;;;;;;13.30;6.72;;;;;;;8.40;66.96;97852.53;5110778;28;20048;-65
2022/04/22 08:07:07;;;;;;;10.02;6.47;;;;;;;8.32;66.79;97853.09;5107429;27;20046;-66
2022/04/22 08:09:51;;;;;;;12.15;6.93;;;;;;;8.42;67.43;97847.19;5103256;28;20410;-65
2022/04/22 08:12:36;;;;;;;10.68;6.90;;;;;;;8.48;67.47;97844.13;5104172;28;20042;-65
2022/04/22 08:15:21;;;;;;;11.50;6.03;;;;;;;8.52;68.37;97836.91;5105751;28;20044;-65
2022/04/22 08:18:06;;;;;;;14.77;7.20;;;;;;;8.45;68.30;97832.16;5112182;28;20239;-65
2022/04/22 08:20:50;;;;;;;10.52;6.55;;;;;;;8.54;69.55;97835.00;5081625;28;20123;-64
2022/04/22 08:23:36;;;;;;;14.38;7.40;;;;;;;8.55;68.51;97826.25;5119080;27;20028;-63
2022/04/22 08:26:21;;;;;;;11.98;6.75;;;;;;;8.55;69.56;97826.25;5111445;28;20115;-61
2022/04/22 08:29:05;;;;;;;10.02;6.20;;;;;;;8.75;70.43;97825.56;5103911;28;20036;-66
2022/04/22 08:31:52;;;;;;;14.23;6.85;;;;;;;8.89;70.02;97823.69;5099660;28;20106;-67
2022/04/22 08:34:36;;;;;;;12.52;6.95;;;;;;;8.82;69.25;97819.88;5109278;28;20067;-65
2022/04/22 08:37:21;;;;;;;9.95;6.25;;;;;;;8.69;70.65;97810.38;5115873;28;20044;-65
2022/04/22 08:40:07;;;;;;;11.55;6.93;;;;;;;8.55;71.24;97814.03;5114989;28;20040;-64
2022/04/22 08:42:52;;;;;;;14.73;7.35;;;;;;;8.78;71.05;97801.00;5113977;28;20110;-64
2022/04/22 08:45:37;;;;;;;16.55;6.63;;;;;;;8.84;72.49;97802.31;5115836;28;20104;-65
2022/04/22 08:51:25;;;;;;;13.27;6.22;;;;;;;9.01;71.17;97792.34;5093108;28;20052;-64
2022/04/22 08:54:13;;;;;;;11.70;7.15;;;;;;;9.11;71.25;97788.06;5104998;28;20054;-64
2022/04/22 08:56:59;;;;;;;19.02;7.80;;;;;;;8.95;70.49;97786.66;5106912;28;20053;-66
2022/04/22 08:59:43;;;;;;;14.57;7.35;;;;;;;9.08;71.45;97783.06;5107617;27;20035;-66
2022/04/22 09:02:28;;;;;;;13.07;7.18;;;;;;;9.07;71.94;97784.03;5105326;28;20523;-66
2022/04/22 09:05:14;;;;;;;13.20;7.78;;;;;;;9.12;71.20;97787.94;5096938;28;20056;-66
2022/04/22 09:08:00;;;;;;;15.80;7.97;;;;;;;9.02;72.88;97794.00;5103134;28;20039;-67
2022/04/22 09:10:51;;;;;;;13.93;6.82;;;;;;;8.96;71.99;97787.50;5097914;28;20059;-65
2022/04/22 09:13:37;;;;;;;13.85;7.38;;;;;;;8.90;73.41;97777.50;5084725;28;20040;-65
2022/04/22 09:16:22;;;;;;;10.75;6.50;;;;;;;8.92;72.57;97781.66;5095923;28;20059;-65
2022/04/22 09:19:08;;;;;;;13.00;6.93;;;;;;;8.90;72.26;97778.34;5100001;28;20036;-63
2022/04/22 09:21:56;;;;;;;11.57;6.70;;;;;;;9.01;70.57;97780.09;5109401;28;20064;-67
2022/04/22 09:24:55;;;;;;;13.30;7.70;;;;;;;9.10;70.51;97768.13;5111616;28;20470;-66
2022/04/22 09:27:44;;;;;;;11.75;7.03;;;;;;;8.98;70.41;97770.75;5104974;28;20535;-66
2022/04/22 09:30:30;;;;;;;13.00;6.53;;;;;;;8.91;71.76;97773.94;5103507;28;20044;-62
2022/04/22 09:33:15;;;;;;;15.23;8.50;;;;;;;8.97;71.82;97771.69;5092629;28;20039;-63
2022/04/22 09:42:39;;;;;;;12.38;7.10;;;;;;;8.89;73.10;97757.56;5100131;28;20044;-62
2022/04/22 09:45:39;;;;;;;13.25;7.85;;;;;;;8.82;73.05;97763.25;5107921;28;20172;-63
2022/04/22 09:48:24;;;;;;;15.18;8.35;;;;;;;8.84;74.73;97756.16;5099761;28;20127;-62
2022/04/22 09:51:23;;;;;;;11.88;8.27;;;;;;;8.78;75.53;97750.56;5091045;28;20040;-63
2022/04/22 09:54:15;;;;;;;11.88;7.93;;;;;;;8.64;75.83;97762.91;5090438;28;20105;-65
2022/04/22 09:57:01;;;;;;;10.65;6.82;;;;;;;8.60;76.72;97746.63;5109092;28;20110;-67
2022/04/22 09:59:46;;;;;;;11.30;7.05;;;;;;;8.79;75.61;97744.38;5112048;28;20048;-66
2022/04/22 10:02:31;;;;;;;10.73;7.40;;;;;;;8.77;76.24;97747.13;5093408;28;20047;-66
2022/04/22 10:05:22;;;;;;;13.18;7.95;;;;;;;8.64;78.70;97747.22;5085892;28;20478;-66
2022/04/22 10:08:08;;;;;;;15.43;8.43;;;;;;;8.65;79.55;97753.28;5114184;28;20039;-67
2022/04/22 10:10:58;;;;;;;12.60;7.68;;;;;;;8.58;79.05;97737.25;5095301;28;20036;-65
2022/04/22 10:13:46;;;;;;;9.15;6.78;;;;;;;8.57;78.44;97738.22;5093455;28;20032;-63
2022/04/22 10:16:35;;;;;;;11.50;7.35;;;;;;;8.53;79.70;97741.97;5095699;28;20043;-66
2022/04/22 10:19:20;;;;;;;12.98;7.82;;;;;;;8.58;80.00;97732.03;5093590;28;20052;-63
2022/04/22 10:22:07;;;;;;;13.00;7.82;;;;;;;8.53;79.92;97732.38;5093450;28;20043;-65
2022/04/22 10:24:54;;;;;;;13.25;7.50;;;;;;;8.34;79.50;97725.94;5093561;28;20104;-65
2022/04/22 10:27:39;;;;;;;14.32;7.15;;;;;;;8.33;79.89;97721.66;5092371;28;20127;-66
2022/04/22 10:30:24;;;;;;;12.05;7.38;;;;;;;8.35;81.44;97721.53;5105397;28;20040;-66
2022/04/22 10:33:10;;;;;;;13.15;8.30;;;;;;;8.33;80.50;97728.66;5112592;28;20039;-67
2022/04/22 10:36:01;;;;;;;13.30;7.97;;;;;;;8.30;80.74;97726.28;5113909;28;20054;-66
2022/04/22 10:38:48;;;;;;;13.23;6.45;;;;;;;8.71;82.01;97732.75;5112635;28;20424;-58
2022/04/22 10:41:48;;;;;;;14.13;8.05;;;;;;;8.49;81.24;97720.47;5113526;28;20031;-58
2022/04/22 10:47:44;;;;;;;14.45;8.63;;;;;;;8.10;84.07;97715.56;5113392;28;20049;-59
2022/04/22 10:50:37;;;;;;;14.60;8.20;;;;;;;8.27;84.72;97714.31;5113324;28;20036;-51
2022/04/22 10:53:24;;;;;;;17.48;11.10;;;;;;;8.33;82.71;97718.22;5106178;28;20059;-57
2022/04/22 10:56:28;;;;;;;21.23;11.02;;;;;;;8.12;85.13;97705.84;5104975;28;20040;-58
2022/04/22 10:59:16;;;;;;;13.50;8.75;;;;;;;8.38;84.02;97705.66;5097856;28;20063;-59
2022/04/22 11:02:28;;;;;;;14.05;9.40;;;;;;;8.38;84.54;97706.50;5091241;28;20100;-57
2022/04/22 11:05:18;;;;;;;17.20;9.10;;;;;;;8.38;83.79;97700.44;5091725;28;20425;-57
2022/04/22 11:08:07;;;;;;;11.50;7.73;;;;;;;8.71;82.75;97703.19;5108758;28;20093;-57
2022/04/22 11:10:52;;;;;;;15.43;9.50;;;;;;;8.60;83.19;97707.47;5092570;28;20040;-58
2022/04/22 11:13:38;;;;;;;17.05;9.88;;;;;;;8.48;82.23;97703.16;5092822;28;20047;-58
2022/04/22 11:16:32;;;;;;;14.23;9.90;;;;;;;8.35;83.61;97698.91;5091480;28;20040;-57
2022/04/22 11:19:17;;;;;;;14.57;9.95;;;;;;;8.40;83.70;97698.53;5083652;28;20051;-59
2022/04/22 11:22:05;;;;;;;17.50;11.57;;;;;;;8.52;83.43;97691.53;5096336;28;20074;-58
2022/04/22 11:24:51;;;;;;;13.32;8.68;;;;;;;8.94;81.82;97696.19;5111938;28;20421;-59
2022/04/22 11:27:39;;;;;;;14.85;9.48;;;;;;;8.73;81.38;97691.66;5108893;28;20035;-56
2022/04/22 11:30:31;;;;;;;12.15;8.73;;;;;;;8.54;80.48;97700.06;5094362;28;20085;-57
2022/04/22 11:33:19;;;;;;;12.55;7.97;;;;;;;8.75;79.53;97700.22;5100698;28;20089;-59
2022/04/22 11:36:06;;;;;;;18.48;10.27;;;;;;;9.21;81.23;97691.47;5111688;28;20059;-58
2022/04/22 11:38:52;;;;;;;15.48;9.38;;;;;;;8.94;80.51;97696.19;5111897;28;20348;-58
2022/04/22 11:41:58;;;;;;;17.58;9.38;;;;;;;8.50;82.11;97683.00;5101847;28;20036;-58
2022/04/22 11:44:42;;;;;;;14.18;8.73;;;;;;;8.60;82.17;97701.44;5095823;28;20119;-58
2022/04/22 11:47:28;;;;;;;13.02;7.63;;;;;;;8.46;83.16;97692.00;5093652;28;20036;-58
2022/04/22 11:50:18;;;;;;;14.70;7.88;;;;;;;8.66;81.59;97693.13;5103680;28;20035;-58
2022/04/22 11:53:12;;;;;;;11.88;7.95;;;;;;;8.52;82.05;97691.53;5101190;28;20054;-58
2022/04/22 11:55:56;;;;;;;12.65;7.28;;;;;;;8.43;83.25;97713.97;5103986;28;20123;-58
2022/04/22 11:58:41;;;;;;;12.85;7.90;;;;;;;8.31;85.08;97689.63;5093046;28;20391;-58
2022/04/22 12:08:01;;;;;;;11.73;7.95;;;;;;;8.00;88.68;97686.72;5098182;28;20471;-57
2022/04/22 12:10:47;;;;;;;12.10;6.82;;;;;;;8.00;89.29;97684.97;5101940;28;20036;-57
2022/04/22 12:13:32;;;;;;;13.43;8.18;;;;;;;7.89;89.68;97677.09;5099626;28;20459;-58
2022/04/22 12:16:20;;;;;;;11.40;7.63;;;;;;;7.97;90.17;97679.97;5093991;28;20036;-59
2022/04/22 12:19:07;;;;;;;11.77;7.13;;;;;;;8.32;89.03;97696.53;5093924;28;20059;-65
2022/04/22 12:21:52;;;;;;;12.10;7.60;;;;;;;7.94;90.61;97680.22;5091223;28;20043;-66
2022/04/22 12:24:37;;;;;;;12.02;6.82;;;;;;;7.96;90.70;97670.50;5111216;28;20478;-64
2022/04/22 12:27:22;;;;;;;9.98;6.63;;;;;;;7.96;90.50;97677.50;5110784;28;20044;-65
2022/04/22 12:30:12;;;;;;;9.15;6.00;;;;;;;7.87;90.08;97677.22;5103986;28;20048;-65
2022/04/22 12:32:57;;;;;;;11.07;6.57;;;;;;;7.87;90.01;97676.38;5105764;28;20059;-65
2022/04/22 12:35:42;;;;;;;10.10;6.70;;;;;;;7.90;89.90;97673.53;5102109;28;20061;-65
2022/04/22 12:38:29;;;;;;;9.05;6.35;;;;;;;7.87;90.52;97676.38;5104617;28;20046;-63
2022/04/22 12:41:17;;;;;;;11.73;7.22;;;;;;;7.90;89.89;97673.53;5110967;28;20036;-66
2022/04/22 12:44:11;;;;;;;10.25;7.28;;;;;;;7.87;88.84;97679.00;5100008;28;20051;-67
2022/04/22 12:53:34;;;;;;;10.77;7.22;;;;;;;7.97;90.02;97663.50;5106759;28;20309;-66
2022/04/22 12:56:25;;;;;;;14.25;7.00;;;;;;;8.00;89.22;97658.88;5093610;28;20036;-64
2022/04/22 12:59:09;;;;;;;11.23;7.40;;;;;;;8.10;89.22;97663.38;5100825;28;20048;-64
2022/04/22 13:01:54;;;;;;;10.93;7.13;;;;;;;8.14;88.81;97657.00;5089921;28;20032;-67
2022/04/22 13:05:18;;;;;;;11.35;7.20;;;;;;;8.41;87.17;97653.22;5100751;28;20043;-65
2022/04/22 13:08:10;;;;;;;12.23;7.28;;;;;;;8.56;85.97;97653.84;5100998;28;20052;-63
2022/04/22 13:10:58;;;;;;;;;;;;;;;8.47;86.30;97659.75;5108262;28;20462;-65
2022/04/22 13:13:42;;;;;;;11.55;6.38;;;;;;;8.54;84.90;97657.47;5109555;28;19919;-66
2022/04/22 13:16:28;;;;;;;10.00;7.07;;;;;;;8.60;84.54;97649.22;5113762;28;20036;-66
2022/04/22 13:19:12;;;;;;;11.05;6.90;;;;;;;8.59;83.69;97647.53;5104529;28;20031;-68
2022/04/22 13:22:00;;;;;;;12.38;6.85;;;;;;;8.65;83.60;97646.25;5113680;28;20114;-68
2022/04/22 13:24:45;;;;;;;11.50;6.85;;;;;;;8.59;83.66;97640.53;5114578;28;20487;-67
2022/04/22 13:27:30;;;;;;;12.07;6.97;;;;;;;8.67;83.51;97636.47;5113551;28;20039;-66
2022/04/22 13:30:15;;;;;;;11.27;6.95;;;;;;;8.75;83.21;97637.56;5113354;28;20069;-67
2022/04/22 13:33:01;;;;;;;11.95;7.40;;;;;;;8.79;83.32;97632.09;5099278;28;20042;-66
2022/04/22 13:35:46;;;;;;;14.45;7.18;;;;;;;8.87;82.59;97627.09;5114639;28;20482;-67
2022/04/22 13:38:32;;;;;;;10.63;6.40;;;;;;;8.79;82.33;97630.31;5113446;28;20118;-65
2022/04/22 13:41:17;;;;;;;10.55;7.72;;;;;;;8.73;82.74;97631.63;5114508;28;20047;-66
2022/04/22 13:44:02;;;;;;;10.85;7.18;;;;;;;8.80;82.64;97628.50;5114459;28;20047;-66
2022/04/22 13:52:52;;;;;;;10.80;6.68;;;;;;;8.70;80.26;97631.84;5114415;28;20039;-65
2022/04/22 13:55:39;;;;;;;10.07;6.20;;;;;;;8.84;80.44;97640.38;5114311;28;20470;-66
2022/04/22 13:58:23;;;;;;;10.77;6.55;;;;;;;8.79;80.99;97645.97;5113362;28;20379;-67
2022/04/22 14:01:08;;;;;;;10.73;6.22;;;;;;;8.89;80.76;97640.03;5113086;28;20043;-66
2022/04/22 14:03:53;;;;;;;13.55;7.10;;;;;;;9.12;79.39;97630.34;5098800;28;20044;-54
2022/04/22 14:06:37;;;;;;;11.30;7.22;;;;;;;8.87;80.35;97624.47;5112869;28;20478;-55
2022/04/22 14:09:22;;;;;;;16.00;7.75;;;;;;;8.91;80.59;97619.84;5114038;28;20467;-56
2022/04/22 14:12:09;;;;;;;12.15;7.38;;;;;;;8.92;80.64;97635.38;5112117;28;20176;-54
2022/04/22 14:14:54;;;;;;;11.38;6.90;;;;;;;9.13;81.20;97639.84;5113251;28;20048;-55